createdAt,value
2022-11-28T00:01:39.662Z,4.30
2022-11-28T00:04:10.250Z,4.30
2022-11-28T00:06:40.625Z,4.30
2022-11-28T00:09:09.590Z,4.30
2022-11-28T00:11:37.925Z,4.30
2022-11-28T00:14:06.416Z,4.30
2022-11-28T00:16:34.820Z,4.30
2022-11-28T00:19:04.875Z,4.30
2022-11-28T00:21:35.074Z,4.30
2022-11-28T00:24:03.932Z,4.30
2022-11-28T00:26:34.317Z,4.30
2022-11-28T00:29:02.955Z,4.30
2022-11-28T00:31:34.093Z,4.20
2022-11-28T00:34:03.058Z,4.20
2022-11-28T00:36:31.934Z,4.20
2022-11-28T00:39:01.615Z,4.20
2022-11-28T00:41:31.530Z,4.20
2022-11-28T00:43:59.899Z,4.20
2022-11-28T00:46:29.172Z,4.20
2022-11-28T00:48:58.306Z,4.20
2022-11-28T00:51:28.415Z,4.20
2022-11-28T00:53:58.678Z,4.20
2022-11-28T00:56:30.054Z,4.10
2022-11-28T00:58:59.995Z,4.10
2022-11-28T01:01:31.179Z,4.10
2022-11-28T01:04:02.625Z,4.00
2022-11-28T01:06:32.857Z,4.00
2022-11-28T01:09:03.457Z,3.90
2022-11-28T01:11:33.482Z,3.90
2022-11-28T01:14:02.881Z,3.90
2022-11-28T01:16:31.900Z,3.90
2022-11-28T01:19:00.449Z,3.80
2022-11-28T01:21:29.289Z,3.90
2022-11-28T01:23:57.751Z,3.80
2022-11-28T01:26:27.737Z,3.80
2022-11-28T01:28:58.138Z,3.80
2022-11-28T01:31:29.160Z,3.80
2022-11-28T01:33:58.002Z,3.70
2022-11-28T01:36:27.060Z,3.70
2022-11-28T01:38:55.599Z,3.70
2022-11-28T01:41:26.921Z,3.70
2022-11-28T01:44:09.476Z,3.70
2022-11-28T01:46:38.285Z,3.60
2022-11-28T01:49:12.638Z,3.70
2022-11-28T01:51:46.175Z,3.60
2022-11-28T01:54:15.972Z,3.60
2022-11-28T01:56:51.340Z,3.60
2022-11-28T01:59:24.157Z,3.60
2022-11-28T02:01:52.390Z,3.60
2022-11-28T02:04:21.047Z,3.60
2022-11-28T02:06:49.307Z,3.70
2022-11-28T02:09:18.238Z,3.70
2022-11-28T02:12:09.250Z,3.70
2022-11-28T02:15:09.462Z,3.70
2022-11-28T02:17:48.307Z,3.70
2022-11-28T02:20:58.063Z,3.70
2022-11-28T02:23:33.462Z,3.80
2022-11-28T02:26:26.246Z,3.70
2022-11-28T02:29:42.789Z,3.80
2022-11-28T02:32:19.201Z,3.80
2022-11-28T02:34:56.003Z,3.80
2022-11-28T02:37:30.425Z,3.80
2022-11-28T02:40:10.221Z,3.90
2022-11-28T02:42:51.533Z,3.80
2022-11-28T02:45:25.475Z,3.90
2022-11-28T02:48:03.667Z,3.90
2022-11-28T02:50:36.564Z,3.90
2022-11-28T02:53:08.609Z,3.90
2022-11-28T02:55:41.308Z,3.90
2022-11-28T02:58:10.518Z,3.90
2022-11-28T03:00:40.359Z,4.00
2022-11-28T03:03:27.658Z,4.00
2022-11-28T03:06:00.340Z,4.00
2022-11-28T03:08:49.190Z,4.00
2022-11-28T03:11:24.320Z,4.00
2022-11-28T03:13:58.142Z,4.00
2022-11-28T03:16:30.896Z,4.00
2022-11-28T03:19:08.730Z,4.00
2022-11-28T03:21:42.129Z,3.90
2022-11-28T03:24:16.755Z,3.90
2022-11-28T03:26:54.026Z,3.90
2022-11-28T03:29:26.708Z,3.90
2022-11-28T03:31:58.611Z,3.90
2022-11-28T03:34:33.330Z,3.90
2022-11-28T03:37:07.329Z,3.90
2022-11-28T03:39:39.436Z,3.90
2022-11-28T03:42:11.926Z,3.90
2022-11-28T03:44:46.915Z,3.90
2022-11-28T03:47:15.503Z,4.00
2022-11-28T03:49:51.560Z,4.00
2022-11-28T03:52:25.558Z,4.00
2022-11-28T03:54:58.368Z,4.00
2022-11-28T03:57:34.369Z,4.00
2022-11-28T04:00:07.516Z,4.10
2022-11-28T04:02:42.150Z,4.10
2022-11-28T04:05:22.365Z,4.10
2022-11-28T04:07:57.598Z,4.10
2022-11-28T04:10:33.373Z,4.10
2022-11-28T04:13:06.930Z,4.10
2022-11-28T04:15:42.724Z,4.10
2022-11-28T04:18:21.868Z,4.10
2022-11-28T04:20:58.506Z,4.10
2022-11-28T04:23:28.846Z,4.10
2022-11-28T04:26:02.022Z,4.10
2022-11-28T04:28:34.122Z,4.10
2022-11-28T04:31:05.792Z,4.10
2022-11-28T04:33:37.638Z,4.10
2022-11-28T04:36:09.670Z,4.10
2022-11-28T04:38:39.518Z,4.10
2022-11-28T04:41:16.106Z,4.10
2022-11-28T04:43:50.088Z,4.10
2022-11-28T04:46:25.164Z,4.20
2022-11-28T04:48:53.529Z,4.10
2022-11-28T04:51:28.356Z,4.20
2022-11-28T04:54:03.108Z,4.10
2022-11-28T04:56:41.427Z,4.20
2022-11-28T04:59:10.287Z,4.20
2022-11-28T05:01:41.334Z,4.20
2022-11-28T05:04:09.697Z,4.20
2022-11-28T05:06:39.514Z,4.20
2022-11-28T05:09:08.216Z,4.10
2022-11-28T05:11:36.504Z,4.20
2022-11-28T05:14:04.891Z,4.10
2022-11-28T05:16:33.296Z,4.20
2022-11-28T05:19:01.492Z,4.20
2022-11-28T05:21:29.887Z,4.10
2022-11-28T05:23:59.553Z,4.10
2022-11-28T05:26:27.784Z,4.20
2022-11-28T05:28:57.209Z,4.10
2022-11-28T05:31:25.705Z,4.10
2022-11-28T05:33:55.164Z,4.10
2022-11-28T05:36:23.663Z,4.10
2022-11-28T05:38:51.967Z,4.10
2022-11-28T05:41:23.999Z,4.00
2022-11-28T05:43:52.815Z,4.10
2022-11-28T05:46:21.643Z,4.00
2022-11-28T05:48:49.871Z,4.00
2022-11-28T05:51:18.644Z,4.00
2022-11-28T05:53:46.815Z,4.00
2022-11-28T05:56:16.702Z,4.10
2022-11-28T05:58:46.898Z,4.10
2022-11-28T06:01:17.309Z,4.10
2022-11-28T06:03:46.195Z,4.10
2022-11-28T06:06:15.923Z,4.10
2022-11-28T06:08:44.855Z,4.10
2022-11-28T06:11:14.901Z,4.10
2022-11-28T06:13:43.198Z,4.10
2022-11-28T06:16:14.881Z,4.20
2022-11-28T06:18:43.634Z,4.20
2022-11-28T06:21:14.175Z,4.10
2022-11-28T06:23:42.867Z,4.20
2022-11-28T06:26:12.995Z,4.20
2022-11-28T06:28:41.696Z,4.20
2022-11-28T06:31:13.433Z,4.20
2022-11-28T06:33:42.333Z,4.20
2022-11-28T06:36:12.111Z,4.30
2022-11-28T06:38:40.508Z,4.20
2022-11-28T06:41:11.707Z,4.20
2022-11-28T06:43:40.423Z,4.20
2022-11-28T06:46:16.172Z,4.30
2022-11-28T06:48:45.074Z,4.30
2022-11-28T06:51:13.809Z,4.30
2022-11-28T06:53:42.494Z,4.30
2022-11-28T06:56:14.093Z,4.30
2022-11-28T06:58:43.203Z,4.30
2022-11-28T07:01:15.304Z,4.30
2022-11-28T07:03:44.075Z,4.30
2022-11-28T07:06:12.935Z,4.30
2022-11-28T07:08:41.638Z,4.40
2022-11-28T07:11:11.966Z,4.40
2022-11-28T07:13:40.639Z,4.40
2022-11-28T07:16:10.002Z,4.40
2022-11-28T07:18:39.879Z,4.50
2022-11-28T07:21:08.077Z,4.50
2022-11-28T07:23:36.278Z,4.50
2022-11-28T07:26:05.878Z,4.50
2022-11-28T07:28:35.999Z,4.50
2022-11-28T07:31:06.719Z,4.50
2022-11-28T07:33:36.440Z,4.50
2022-11-28T07:36:08.370Z,4.60
2022-11-28T07:38:36.734Z,4.60
2022-11-28T07:41:05.972Z,4.60
2022-11-28T07:43:34.229Z,4.60
2022-11-28T07:46:05.846Z,4.70
2022-11-28T07:48:34.388Z,4.70
2022-11-28T07:51:07.844Z,4.70
2022-11-28T07:53:36.206Z,4.70
2022-11-28T07:56:05.084Z,4.80
2022-11-28T07:58:33.605Z,4.80
2022-11-28T08:01:01.832Z,4.90
2022-11-28T08:03:30.139Z,4.90
2022-11-28T08:06:03.281Z,5.00
2022-11-28T08:08:34.585Z,5.10
2022-11-28T08:11:04.563Z,5.10
2022-11-28T08:13:32.971Z,5.10
2022-11-28T08:16:05.235Z,5.10
2022-11-28T08:18:33.688Z,5.10
2022-11-28T08:21:06.755Z,5.20
2022-11-28T08:23:37.534Z,5.20
2022-11-28T08:26:07.225Z,5.20
2022-11-28T08:28:35.703Z,5.30
2022-11-28T08:31:11.094Z,5.40
2022-11-28T08:33:39.889Z,5.40
2022-11-28T08:36:09.596Z,5.50
2022-11-28T08:38:39.396Z,5.60
2022-11-28T08:41:09.605Z,5.60
2022-11-28T08:43:39.350Z,5.60
2022-11-28T08:46:10.300Z,5.70
2022-11-28T08:48:38.942Z,5.70
2022-11-28T08:51:09.522Z,5.70
2022-11-28T08:53:39.175Z,5.70
2022-11-28T08:56:08.262Z,5.80
2022-11-28T08:58:36.546Z,5.80
2022-11-28T09:01:05.613Z,5.90
2022-11-28T09:03:34.011Z,6.00
2022-11-28T09:06:03.339Z,6.10
2022-11-28T09:08:31.625Z,6.20
2022-11-28T09:11:01.431Z,6.30
2022-11-28T09:13:29.694Z,6.50
2022-11-28T09:15:57.844Z,6.70
2022-11-28T09:18:27.126Z,6.80
2022-11-28T09:20:59.628Z,6.70
2022-11-28T09:23:28.024Z,6.80
2022-11-28T09:25:56.346Z,6.70
2022-11-28T09:28:28.811Z,6.60
2022-11-28T09:31:02.713Z,6.60
2022-11-28T09:33:31.395Z,6.50
2022-11-28T09:35:59.674Z,6.50
2022-11-28T09:38:28.081Z,6.50
2022-11-28T09:40:56.384Z,6.50
2022-11-28T09:43:32.219Z,6.60
2022-11-28T09:46:03.974Z,6.60
2022-11-28T09:48:37.914Z,6.60
2022-11-28T09:51:15.335Z,6.60
2022-11-28T09:53:51.735Z,6.60
2022-11-28T09:56:23.405Z,6.70
2022-11-28T09:58:57.883Z,6.80
2022-11-28T10:01:33.359Z,6.90
2022-11-28T10:04:07.540Z,7.00
2022-11-28T10:06:50.182Z,7.20
2022-11-28T10:09:29.330Z,7.40
2022-11-28T10:12:10.804Z,7.60
2022-11-28T10:15:02.597Z,7.80
2022-11-28T10:17:40.828Z,7.70
2022-11-28T10:20:15.335Z,7.50
2022-11-28T10:22:49.591Z,7.60
2022-11-28T10:25:22.442Z,7.70
2022-11-28T10:27:52.108Z,7.80
2022-11-28T10:30:24.334Z,7.90
2022-11-28T10:33:05.111Z,7.80
2022-11-28T10:35:42.805Z,7.90
2022-11-28T10:38:15.220Z,7.90
2022-11-28T10:40:49.014Z,8.10
2022-11-28T10:43:29.243Z,8.20
2022-11-28T10:46:13.683Z,8.50
2022-11-28T10:48:46.381Z,8.60
2022-11-28T10:51:26.426Z,8.50
2022-11-28T10:54:05.772Z,8.40
2022-11-28T10:56:48.563Z,8.30
2022-11-28T10:59:28.875Z,8.30
2022-11-28T11:01:59.278Z,8.50
2022-11-28T11:04:28.843Z,8.30
2022-11-28T11:07:10.225Z,8.20
2022-11-28T11:09:41.574Z,8.10
2022-11-28T11:12:17.498Z,7.90
2022-11-28T11:14:45.779Z,7.80
2022-11-28T11:17:31.271Z,7.90
2022-11-28T11:20:02.814Z,8.00
2022-11-28T11:22:32.071Z,7.90
2022-11-28T11:25:14.491Z,7.90
2022-11-28T11:27:50.997Z,7.80
2022-11-28T11:30:27.103Z,7.70
2022-11-28T11:32:58.891Z,7.70
2022-11-28T11:35:29.183Z,7.50
2022-11-28T11:38:17.509Z,7.60
2022-11-28T11:40:46.432Z,7.60
2022-11-28T11:43:29.074Z,7.60
2022-11-28T11:46:08.824Z,7.60
2022-11-28T11:48:40.357Z,7.60
2022-11-28T11:51:21.762Z,7.60
2022-11-28T11:53:50.062Z,7.40
2022-11-28T11:56:19.038Z,7.40
2022-11-28T11:58:53.351Z,7.30
2022-11-28T12:01:23.110Z,7.30
2022-11-28T12:03:58.159Z,7.30
2022-11-28T12:06:31.379Z,7.20
2022-11-28T12:09:08.781Z,7.20
2022-11-28T12:11:43.961Z,7.20
2022-11-28T12:14:28.010Z,7.20
2022-11-28T12:17:32.599Z,7.20
2022-11-28T12:20:14.099Z,7.10
2022-11-28T12:22:50.688Z,7.10
2022-11-28T12:25:26.906Z,7.00
2022-11-28T12:28:07.021Z,7.00
2022-11-28T12:30:51.441Z,6.90
2022-11-28T12:33:30.647Z,6.90
2022-11-28T12:36:11.327Z,6.80
2022-11-28T12:38:56.583Z,6.80
2022-11-28T12:41:39.112Z,6.70
2022-11-28T12:44:20.925Z,6.60
2022-11-28T12:46:55.416Z,6.60
2022-11-28T12:49:35.541Z,6.60
2022-11-28T12:52:21.200Z,6.50
2022-11-28T12:55:19.498Z,6.50
2022-11-28T12:57:54.298Z,6.40
2022-11-28T13:00:25.582Z,6.40
2022-11-28T13:03:13.120Z,6.30
2022-11-28T13:05:55.617Z,6.30
2022-11-28T13:08:48.924Z,6.30
2022-11-28T13:11:30.254Z,6.30
2022-11-28T13:14:05.514Z,6.30
2022-11-28T13:16:42.427Z,6.30
2022-11-28T13:19:16.859Z,6.20
2022-11-28T13:21:50.806Z,6.00
2022-11-28T13:24:31.413Z,6.00
2022-11-28T13:27:06.923Z,5.90
2022-11-28T13:29:43.627Z,5.80
2022-11-28T13:32:19.279Z,5.80
2022-11-28T13:34:48.800Z,5.90
2022-11-28T13:40:20.363Z,6.00
2022-11-28T13:43:09.830Z,6.00
2022-11-28T13:45:40.057Z,5.90
2022-11-28T13:51:39.064Z,5.80
2022-11-28T13:54:43.559Z,5.80
2022-11-28T13:57:23.936Z,5.80
2022-11-28T13:59:57.477Z,5.80
2022-11-28T14:02:45.147Z,5.80
2022-11-28T14:05:41.617Z,5.80
2022-11-28T14:08:24.254Z,5.80
2022-11-28T14:11:05.639Z,5.70
2022-11-28T14:13:55.387Z,5.70
2022-11-28T14:16:38.400Z,5.70
2022-11-28T14:19:23.851Z,5.60
2022-11-28T14:22:06.089Z,5.50
2022-11-28T14:24:52.970Z,5.50
2022-11-28T14:27:25.741Z,5.50
2022-11-28T14:29:58.013Z,5.40
2022-11-28T14:32:34.021Z,5.40
2022-11-28T14:35:03.063Z,5.50
2022-11-28T14:37:58.981Z,5.50
2022-11-28T14:41:06.887Z,5.40
2022-11-28T14:43:37.489Z,5.30
2022-11-28T14:46:34.885Z,5.30
2022-11-28T14:49:24.759Z,5.30
2022-11-28T14:52:41.987Z,5.20
2022-11-28T14:55:20.723Z,5.20
2022-11-28T14:58:00.911Z,5.20
2022-11-28T15:00:31.704Z,5.10
2022-11-28T15:03:24.211Z,5.10
2022-11-28T15:05:53.789Z,5.10
2022-11-28T15:08:36.188Z,5.10
2022-11-28T15:11:21.138Z,5.00
2022-11-28T15:14:15.981Z,5.00
2022-11-28T15:16:50.458Z,5.00
2022-11-28T15:19:26.099Z,5.00
2022-11-28T15:21:55.797Z,5.00
2022-11-28T15:24:26.348Z,5.00
2022-11-28T15:26:57.994Z,5.00
2022-11-28T15:29:28.571Z,4.90
2022-11-28T15:31:58.943Z,5.00
2022-11-28T15:34:31.666Z,4.90
2022-11-28T15:37:02.472Z,5.00
2022-11-28T15:39:36.117Z,5.00
2022-11-28T15:42:06.813Z,4.90
2022-11-28T15:44:36.671Z,4.90
2022-11-28T15:47:06.111Z,4.90
2022-11-28T15:49:38.626Z,4.90
2022-11-28T15:52:06.903Z,4.90
2022-11-28T15:54:39.231Z,4.90
2022-11-28T15:57:18.102Z,4.90
2022-11-28T15:59:46.856Z,4.90
2022-11-28T16:02:22.791Z,4.90
2022-11-28T16:04:59.137Z,4.70
2022-11-28T16:07:27.632Z,4.70
2022-11-28T16:10:00.943Z,4.60
2022-11-28T16:12:30.048Z,4.60
2022-11-28T16:15:01.971Z,4.60
2022-11-28T16:17:33.697Z,4.50
2022-11-28T16:20:05.413Z,4.50
2022-11-28T16:22:37.666Z,4.50
2022-11-28T16:25:15.555Z,4.40
2022-11-28T16:27:45.633Z,4.50
2022-11-28T16:30:36.961Z,4.50
2022-11-28T16:33:35.437Z,4.50
2022-11-28T16:36:13.498Z,4.50
2022-11-28T16:38:41.868Z,4.50
2022-11-28T16:41:18.928Z,4.50
2022-11-28T16:43:51.215Z,4.40
2022-11-28T16:46:22.886Z,4.30
2022-11-28T16:48:55.278Z,4.40
2022-11-28T16:51:36.605Z,4.30
2022-11-28T16:54:30.746Z,4.40
2022-11-28T16:57:10.478Z,4.40
2022-11-28T16:59:39.114Z,4.30
2022-11-28T17:02:15.929Z,4.30
2022-11-28T17:04:44.827Z,4.40
2022-11-28T17:07:17.674Z,4.30
2022-11-28T17:09:47.459Z,4.30
2022-11-28T17:12:22.864Z,4.30
2022-11-28T17:14:51.144Z,4.30
2022-11-28T17:17:20.634Z,4.30
2022-11-28T17:19:49.013Z,4.40
2022-11-28T17:22:21.363Z,4.30
2022-11-28T17:24:51.626Z,4.30
2022-11-28T17:27:19.886Z,4.30
2022-11-28T17:29:48.125Z,4.30
2022-11-28T17:32:16.826Z,4.30
2022-11-28T17:34:46.325Z,4.30
2022-11-28T17:37:14.767Z,4.30
2022-11-28T17:40:04.649Z,4.30
2022-11-28T17:42:33.212Z,4.30
2022-11-28T17:45:01.530Z,4.40
2022-11-28T17:47:29.894Z,4.40
2022-11-28T17:49:58.912Z,4.30
2022-11-28T17:52:30.361Z,4.40
2022-11-28T17:55:06.987Z,4.30
2022-11-28T17:57:36.214Z,4.30
2022-11-28T18:00:06.682Z,4.30
2022-11-28T18:02:35.387Z,4.20
2022-11-28T18:05:03.818Z,4.20
2022-11-28T18:07:33.393Z,4.20
2022-11-28T18:10:03.675Z,4.30
2022-11-28T18:12:32.453Z,4.30
2022-11-28T18:15:01.121Z,4.30
2022-11-28T18:17:29.424Z,4.30
2022-11-28T18:19:58.129Z,4.30
2022-11-28T18:22:26.303Z,4.30
2022-11-28T18:24:54.555Z,4.40
2022-11-28T18:27:24.345Z,4.40
2022-11-28T18:29:52.771Z,4.40
2022-11-28T18:32:21.035Z,4.40
2022-11-28T18:34:50.141Z,4.30
2022-11-28T18:37:18.601Z,4.30
2022-11-28T18:39:47.192Z,4.30
2022-11-28T18:42:15.788Z,4.30
2022-11-28T18:44:45.474Z,4.40
2022-11-28T18:47:13.754Z,4.40
2022-11-28T18:49:42.324Z,4.40
2022-11-28T18:52:10.807Z,4.40
2022-11-28T18:54:39.066Z,4.30
2022-11-28T18:57:08.098Z,4.30
2022-11-28T18:59:37.303Z,4.30
2022-11-28T19:02:07.053Z,4.30
2022-11-28T19:04:36.425Z,4.30
2022-11-28T19:07:04.683Z,4.30
2022-11-28T19:09:33.053Z,4.30
2022-11-28T19:12:01.249Z,4.40
2022-11-28T19:14:29.790Z,4.30
2022-11-28T19:16:58.319Z,4.30
2022-11-28T19:19:28.133Z,4.30
2022-11-28T19:21:56.500Z,4.30
2022-11-28T19:24:25.113Z,4.30
2022-11-28T19:26:53.434Z,4.30
2022-11-28T19:29:21.647Z,4.20
2022-11-28T19:31:49.886Z,4.30
2022-11-28T19:34:19.681Z,4.20
2022-11-28T19:36:51.232Z,4.20
2022-11-28T19:39:22.308Z,4.20
2022-11-28T19:41:51.590Z,4.20
2022-11-28T19:44:21.062Z,4.20
2022-11-28T19:46:50.461Z,4.10
2022-11-28T19:49:20.603Z,4.10
2022-11-28T19:51:51.421Z,4.10
2022-11-28T19:54:20.808Z,4.10
2022-11-28T19:56:49.600Z,4.10
2022-11-28T19:59:18.304Z,4.20
2022-11-28T20:01:49.098Z,4.10
2022-11-28T20:04:17.698Z,4.10
2022-11-28T20:06:46.085Z,4.10
2022-11-28T20:09:15.777Z,4.20
2022-11-28T20:11:45.730Z,4.10
2022-11-28T20:14:16.424Z,4.10
2022-11-28T20:16:45.143Z,4.10
2022-11-28T20:19:15.074Z,4.10
2022-11-28T20:21:43.428Z,4.00
2022-11-28T20:24:12.074Z,4.00
2022-11-28T20:26:44.055Z,4.10
2022-11-28T20:29:15.338Z,4.00
2022-11-28T20:31:45.979Z,4.10
2022-11-28T20:34:15.140Z,4.10
2022-11-28T20:36:43.793Z,4.00
2022-11-28T20:39:12.821Z,4.00
2022-11-28T20:41:43.384Z,4.00
2022-11-28T20:44:12.152Z,4.00
2022-11-28T20:46:40.455Z,4.00
2022-11-28T20:49:08.971Z,3.90
2022-11-28T20:51:37.834Z,3.90
2022-11-28T20:54:07.566Z,3.90
2022-11-28T20:57:05.178Z,3.90
2022-11-28T20:59:29.312Z,3.90
2022-11-28T21:01:57.640Z,3.90
2022-11-28T21:04:26.023Z,4.00
2022-11-28T21:06:54.265Z,4.00
2022-11-28T21:09:22.896Z,4.00
2022-11-28T21:11:57.378Z,4.00
2022-11-28T21:14:28.446Z,4.00
2022-11-28T21:16:57.578Z,3.90
2022-11-28T21:19:25.968Z,4.00
2022-11-28T21:21:54.422Z,3.90
2022-11-28T21:24:22.799Z,3.90
2022-11-28T21:26:53.836Z,3.90
2022-11-28T21:29:23.136Z,3.90
2022-11-28T21:31:53.436Z,3.90
2022-11-28T21:34:22.535Z,3.90
2022-11-28T21:36:53.638Z,3.90
2022-11-28T21:39:23.010Z,3.90
2022-11-28T21:41:52.250Z,3.90
2022-11-28T21:44:20.689Z,3.80
2022-11-28T21:46:49.110Z,3.80
2022-11-28T21:49:19.071Z,3.80
2022-11-28T21:51:47.380Z,3.80
2022-11-28T21:54:15.654Z,3.80
2022-11-28T21:56:44.039Z,3.80
2022-11-28T21:59:12.222Z,3.80
2022-11-28T22:01:40.686Z,3.80
2022-11-28T22:04:09.038Z,3.80
2022-11-28T22:06:38.570Z,3.80
2022-11-28T22:09:09.660Z,3.80
2022-11-28T22:11:39.328Z,3.80
2022-11-28T22:14:07.836Z,3.70
2022-11-28T22:16:36.206Z,3.70
2022-11-28T22:19:04.480Z,3.70
2022-11-28T22:24:23.091Z,3.70
2022-11-28T22:26:51.685Z,3.70
2022-11-28T22:29:20.141Z,3.70
2022-11-28T22:31:48.681Z,3.70
2022-11-28T22:34:16.905Z,3.70
2022-11-28T22:36:45.280Z,3.60
2022-11-28T22:39:13.640Z,3.60
2022-11-28T22:41:43.640Z,3.60
2022-11-28T22:44:12.783Z,3.60
2022-11-28T22:46:41.011Z,3.70
2022-11-28T22:49:10.356Z,3.70
2022-11-28T22:51:39.154Z,3.60
2022-11-28T22:54:07.908Z,3.60
2022-11-28T22:56:36.558Z,3.60
2022-11-28T22:59:07.387Z,3.60
2022-11-28T23:01:35.775Z,3.60
2022-11-28T23:04:04.374Z,3.60
2022-11-28T23:06:34.763Z,3.60
2022-11-28T23:09:05.901Z,3.60
2022-11-28T23:11:37.762Z,3.50
2022-11-28T23:14:08.155Z,3.60
2022-11-28T23:16:38.733Z,3.60
2022-11-28T23:19:13.753Z,3.50
2022-11-28T23:21:44.907Z,3.50
2022-11-28T23:24:15.712Z,3.50
2022-11-28T23:26:44.451Z,3.50
2022-11-28T23:29:14.636Z,3.50
2022-11-28T23:31:44.570Z,3.50
2022-11-28T23:34:13.328Z,3.50
2022-11-28T23:36:43.366Z,3.50
2022-11-28T23:39:13.546Z,3.50
2022-11-28T23:41:42.118Z,3.50
2022-11-28T23:44:11.987Z,3.50
2022-11-28T23:46:42.436Z,3.50
2022-11-28T23:49:11.731Z,3.50
2022-11-28T23:51:41.131Z,3.50
2022-11-28T23:54:10.611Z,3.40
2022-11-28T23:56:41.630Z,3.50
2022-11-28T23:59:12.731Z,3.40
